sensor_id;sensor_type;location;lat;lon;timestamp;P1;durP1;ratioP1;P2;durP2;ratioP2
64795;SDS011;51229;51.980;6.722;2023-04-03T00:01:17;4.55;;;1.60;;
64795;SDS011;51229;51.980;6.722;2023-04-03T00:03:42;5.20;;;1.88;;
64795;SDS011;51229;51.980;6.722;2023-04-03T00:06:08;3.83;;;1.50;;
64795;SDS011;51229;51.980;6.722;2023-04-03T00:08:36;4.70;;;1.60;;
64795;SDS011;51229;51.980;6.722;2023-04-03T00:11:02;4.53;;;1.60;;
64795;SDS011;51229;51.980;6.722;2023-04-03T00:13:32;6.10;;;1.70;;
64795;SDS011;51229;51.980;6.722;2023-04-03T00:15:59;5.60;;;1.65;;
64795;SDS011;51229;51.980;6.722;2023-04-03T00:18:24;3.33;;;1.50;;
64795;SDS011;51229;51.980;6.722;2023-04-03T00:20:50;3.65;;;1.60;;
64795;SDS011;51229;51.980;6.722;2023-04-03T00:23:16;2.85;;;1.42;;
64795;SDS011;51229;51.980;6.722;2023-04-03T00:25:42;4.68;;;1.65;;
64795;SDS011;51229;51.980;6.722;2023-04-03T00:28:08;4.78;;;1.35;;
64795;SDS011;51229;51.980;6.722;2023-04-03T00:30:34;5.32;;;1.73;;
64795;SDS011;51229;51.980;6.722;2023-04-03T00:33:00;5.63;;;1.90;;
64795;SDS011;51229;51.980;6.722;2023-04-03T00:35:26;4.68;;;1.83;;
64795;SDS011;51229;51.980;6.722;2023-04-03T00:37:52;5.53;;;1.65;;
64795;SDS011;51229;51.980;6.722;2023-04-03T00:40:19;4.10;;;1.70;;
64795;SDS011;51229;51.980;6.722;2023-04-03T00:42:47;4.72;;;1.55;;
64795;SDS011;51229;51.980;6.722;2023-04-03T00:45:24;3.97;;;1.40;;
64795;SDS011;51229;51.980;6.722;2023-04-03T00:48:02;7.10;;;1.90;;
64795;SDS011;51229;51.980;6.722;2023-04-03T00:50:30;5.50;;;2.00;;
64795;SDS011;51229;51.980;6.722;2023-04-03T00:52:57;4.93;;;1.88;;
64795;SDS011;51229;51.980;6.722;2023-04-03T00:55:23;4.38;;;1.50;;
64795;SDS011;51229;51.980;6.722;2023-04-03T00:57:50;2.83;;;1.30;;
64795;SDS011;51229;51.980;6.722;2023-04-03T01:00:18;3.47;;;1.75;;
64795;SDS011;51229;51.980;6.722;2023-04-03T01:02:45;4.53;;;2.20;;
64795;SDS011;51229;51.980;6.722;2023-04-03T01:05:12;3.17;;;1.50;;
64795;SDS011;51229;51.980;6.722;2023-04-03T01:07:41;5.80;;;1.60;;
64795;SDS011;51229;51.980;6.722;2023-04-03T01:10:09;6.65;;;1.85;;
64795;SDS011;51229;51.980;6.722;2023-04-03T01:12:39;3.83;;;1.17;;
64795;SDS011;51229;51.980;6.722;2023-04-03T01:15:09;6.75;;;1.52;;
64795;SDS011;51229;51.980;6.722;2023-04-03T01:17:44;3.53;;;1.50;;
64795;SDS011;51229;51.980;6.722;2023-04-03T01:25:45;3.58;;;1.50;;
64795;SDS011;51229;51.980;6.722;2023-04-03T01:28:19;3.33;;;1.52;;
64795;SDS011;51229;51.980;6.722;2023-04-03T01:33:39;4.72;;;1.50;;
64795;SDS011;51229;51.980;6.722;2023-04-03T01:36:06;3.97;;;1.45;;
64795;SDS011;51229;51.980;6.722;2023-04-03T01:38:33;4.63;;;1.80;;
64795;SDS011;51229;51.980;6.722;2023-04-03T01:40:58;3.90;;;1.70;;
64795;SDS011;51229;51.980;6.722;2023-04-03T01:43:24;4.53;;;1.65;;
64795;SDS011;51229;51.980;6.722;2023-04-03T01:45:50;2.92;;;1.33;;
64795;SDS011;51229;51.980;6.722;2023-04-03T01:48:17;4.63;;;1.67;;
64795;SDS011;51229;51.980;6.722;2023-04-03T01:50:43;3.53;;;1.33;;
64795;SDS011;51229;51.980;6.722;2023-04-03T01:53:09;6.10;;;1.90;;
64795;SDS011;51229;51.980;6.722;2023-04-03T01:55:35;3.92;;;1.40;;
64795;SDS011;51229;51.980;6.722;2023-04-03T01:58:01;3.85;;;1.30;;
64795;SDS011;51229;51.980;6.722;2023-04-03T02:00:26;5.13;;;1.67;;
64795;SDS011;51229;51.980;6.722;2023-04-03T02:02:52;6.43;;;1.67;;
64795;SDS011;51229;51.980;6.722;2023-04-03T02:05:18;7.38;;;1.73;;
64795;SDS011;51229;51.980;6.722;2023-04-03T02:07:44;3.63;;;1.40;;
64795;SDS011;51229;51.980;6.722;2023-04-03T02:10:11;3.88;;;1.50;;
64795;SDS011;51229;51.980;6.722;2023-04-03T02:12:36;4.22;;;1.55;;
64795;SDS011;51229;51.980;6.722;2023-04-03T02:15:02;3.85;;;1.50;;
64795;SDS011;51229;51.980;6.722;2023-04-03T02:17:28;5.60;;;1.63;;
64795;SDS011;51229;51.980;6.722;2023-04-03T02:19:54;4.85;;;1.55;;
64795;SDS011;51229;51.980;6.722;2023-04-03T02:22:20;4.32;;;2.05;;
64795;SDS011;51229;51.980;6.722;2023-04-03T02:24:46;5.20;;;1.40;;
64795;SDS011;51229;51.980;6.722;2023-04-03T02:27:12;4.47;;;1.42;;
64795;SDS011;51229;51.980;6.722;2023-04-03T02:29:38;5.28;;;1.40;;
64795;SDS011;51229;51.980;6.722;2023-04-03T02:32:04;4.93;;;1.58;;
64795;SDS011;51229;51.980;6.722;2023-04-03T02:34:31;3.28;;;1.48;;
64795;SDS011;51229;51.980;6.722;2023-04-03T02:36:59;3.60;;;1.20;;
64795;SDS011;51229;51.980;6.722;2023-04-03T02:39:25;4.90;;;1.50;;
64795;SDS011;51229;51.980;6.722;2023-04-03T02:41:51;3.47;;;1.40;;
64795;SDS011;51229;51.980;6.722;2023-04-03T02:44:22;3.13;;;1.45;;
64795;SDS011;51229;51.980;6.722;2023-04-03T02:46:49;4.68;;;1.50;;
64795;SDS011;51229;51.980;6.722;2023-04-03T02:49:15;4.25;;;1.67;;
64795;SDS011;51229;51.980;6.722;2023-04-03T02:51:41;8.13;;;1.80;;
64795;SDS011;51229;51.980;6.722;2023-04-03T02:54:08;3.92;;;1.38;;
64795;SDS011;51229;51.980;6.722;2023-04-03T02:56:36;3.85;;;1.70;;
64795;SDS011;51229;51.980;6.722;2023-04-03T02:59:02;5.32;;;1.30;;
64795;SDS011;51229;51.980;6.722;2023-04-03T03:01:29;4.03;;;1.30;;
64795;SDS011;51229;51.980;6.722;2023-04-03T03:03:57;4.93;;;1.50;;
64795;SDS011;51229;51.980;6.722;2023-04-03T03:06:23;4.07;;;1.58;;
64795;SDS011;51229;51.980;6.722;2023-04-03T03:08:49;5.07;;;1.60;;
64795;SDS011;51229;51.980;6.722;2023-04-03T03:11:15;2.83;;;1.15;;
64795;SDS011;51229;51.980;6.722;2023-04-03T03:13:41;3.80;;;1.55;;
64795;SDS011;51229;51.980;6.722;2023-04-03T03:16:07;3.47;;;1.48;;
64795;SDS011;51229;51.980;6.722;2023-04-03T03:18:33;3.95;;;1.40;;
64795;SDS011;51229;51.980;6.722;2023-04-03T03:21:00;5.20;;;1.70;;
64795;SDS011;51229;51.980;6.722;2023-04-03T03:23:28;3.30;;;1.20;;
64795;SDS011;51229;51.980;6.722;2023-04-03T03:25:56;4.00;;;1.38;;
64795;SDS011;51229;51.980;6.722;2023-04-03T03:28:23;3.95;;;1.42;;
64795;SDS011;51229;51.980;6.722;2023-04-03T03:30:49;4.68;;;1.40;;
64795;SDS011;51229;51.980;6.722;2023-04-03T03:33:16;4.40;;;1.40;;
64795;SDS011;51229;51.980;6.722;2023-04-03T03:35:42;4.65;;;1.65;;
64795;SDS011;51229;51.980;6.722;2023-04-03T03:38:08;3.92;;;1.60;;
64795;SDS011;51229;51.980;6.722;2023-04-03T03:40:34;4.10;;;1.50;;
64795;SDS011;51229;51.980;6.722;2023-04-03T03:43:00;3.97;;;1.40;;
64795;SDS011;51229;51.980;6.722;2023-04-03T03:45:26;3.92;;;1.58;;
64795;SDS011;51229;51.980;6.722;2023-04-03T03:47:52;6.13;;;1.70;;
64795;SDS011;51229;51.980;6.722;2023-04-03T03:50:18;3.55;;;1.48;;
64795;SDS011;51229;51.980;6.722;2023-04-03T03:52:44;3.33;;;1.40;;
64795;SDS011;51229;51.980;6.722;2023-04-03T03:55:11;4.70;;;1.30;;
64795;SDS011;51229;51.980;6.722;2023-04-03T03:57:37;5.13;;;1.63;;
64795;SDS011;51229;51.980;6.722;2023-04-03T04:00:04;2.83;;;1.50;;
64795;SDS011;51229;51.980;6.722;2023-04-03T04:02:40;3.42;;;1.25;;
64795;SDS011;51229;51.980;6.722;2023-04-03T04:05:08;5.57;;;1.50;;
64795;SDS011;51229;51.980;6.722;2023-04-03T04:07:34;3.83;;;1.30;;
64795;SDS011;51229;51.980;6.722;2023-04-03T04:10:01;4.32;;;1.48;;
64795;SDS011;51229;51.980;6.722;2023-04-03T04:12:27;3.35;;;1.40;;
64795;SDS011;51229;51.980;6.722;2023-04-03T04:14:53;5.45;;;1.45;;
64795;SDS011;51229;51.980;6.722;2023-04-03T04:17:19;6.18;;;1.90;;
64795;SDS011;51229;51.980;6.722;2023-04-03T04:19:46;3.88;;;1.75;;
64795;SDS011;51229;51.980;6.722;2023-04-03T04:22:12;5.75;;;1.77;;
64795;SDS011;51229;51.980;6.722;2023-04-03T04:24:38;3.13;;;1.45;;
64795;SDS011;51229;51.980;6.722;2023-04-03T04:27:04;6.47;;;1.70;;
64795;SDS011;51229;51.980;6.722;2023-04-03T04:29:31;4.15;;;1.50;;
64795;SDS011;51229;51.980;6.722;2023-04-03T04:32:01;5.57;;;1.77;;
64795;SDS011;51229;51.980;6.722;2023-04-03T04:34:28;5.20;;;1.40;;
64795;SDS011;51229;51.980;6.722;2023-04-03T04:36:55;5.60;;;1.67;;
64795;SDS011;51229;51.980;6.722;2023-04-03T04:39:21;3.80;;;1.80;;
64795;SDS011;51229;51.980;6.722;2023-04-03T04:41:46;3.50;;;1.40;;
64795;SDS011;51229;51.980;6.722;2023-04-03T04:44:12;4.93;;;1.55;;
64795;SDS011;51229;51.980;6.722;2023-04-03T04:46:39;4.28;;;1.67;;
64795;SDS011;51229;51.980;6.722;2023-04-03T04:49:06;4.57;;;1.70;;
64795;SDS011;51229;51.980;6.722;2023-04-03T04:51:32;4.32;;;1.50;;
64795;SDS011;51229;51.980;6.722;2023-04-03T04:53:58;5.13;;;1.70;;
64795;SDS011;51229;51.980;6.722;2023-04-03T04:56:24;5.03;;;1.80;;
64795;SDS011;51229;51.980;6.722;2023-04-03T04:58:52;5.65;;;1.70;;
64795;SDS011;51229;51.980;6.722;2023-04-03T05:01:20;5.45;;;1.70;;
64795;SDS011;51229;51.980;6.722;2023-04-03T05:03:55;5.28;;;1.75;;
64795;SDS011;51229;51.980;6.722;2023-04-03T05:06:23;3.95;;;1.60;;
64795;SDS011;51229;51.980;6.722;2023-04-03T05:08:49;5.80;;;1.80;;
64795;SDS011;51229;51.980;6.722;2023-04-03T05:11:16;3.65;;;1.50;;
64795;SDS011;51229;51.980;6.722;2023-04-03T05:13:43;5.13;;;1.58;;
64795;SDS011;51229;51.980;6.722;2023-04-03T05:16:09;5.03;;;1.35;;
64795;SDS011;51229;51.980;6.722;2023-04-03T05:18:35;6.47;;;1.60;;
64795;SDS011;51229;51.980;6.722;2023-04-03T05:21:06;4.07;;;1.30;;
64795;SDS011;51229;51.980;6.722;2023-04-03T05:23:32;3.03;;;1.30;;
64795;SDS011;51229;51.980;6.722;2023-04-03T05:26:00;5.97;;;1.85;;
64795;SDS011;51229;51.980;6.722;2023-04-03T05:28:27;5.40;;;1.50;;
64795;SDS011;51229;51.980;6.722;2023-04-03T05:30:56;4.88;;;1.20;;
64795;SDS011;51229;51.980;6.722;2023-04-03T05:33:25;5.53;;;1.63;;
64795;SDS011;51229;51.980;6.722;2023-04-03T05:35:53;5.38;;;1.63;;
64795;SDS011;51229;51.980;6.722;2023-04-03T05:38:24;4.97;;;1.58;;
64795;SDS011;51229;51.980;6.722;2023-04-03T05:40:51;6.78;;;1.58;;
64795;SDS011;51229;51.980;6.722;2023-04-03T05:43:17;5.90;;;1.63;;
64795;SDS011;51229;51.980;6.722;2023-04-03T05:45:43;5.10;;;1.65;;
64795;SDS011;51229;51.980;6.722;2023-04-03T05:48:09;6.80;;;1.42;;
64795;SDS011;51229;51.980;6.722;2023-04-03T05:50:36;5.45;;;1.50;;
64795;SDS011;51229;51.980;6.722;2023-04-03T05:53:06;5.68;;;1.67;;
64795;SDS011;51229;51.980;6.722;2023-04-03T05:55:36;5.88;;;1.85;;
64795;SDS011;51229;51.980;6.722;2023-04-03T05:58:01;7.22;;;2.08;;
64795;SDS011;51229;51.980;6.722;2023-04-03T06:00:27;5.47;;;1.85;;
64795;SDS011;51229;51.980;6.722;2023-04-03T06:02:59;8.00;;;2.38;;
64795;SDS011;51229;51.980;6.722;2023-04-03T06:05:25;7.47;;;1.63;;
64795;SDS011;51229;51.980;6.722;2023-04-03T06:07:51;7.35;;;2.10;;
64795;SDS011;51229;51.980;6.722;2023-04-03T06:10:16;5.50;;;1.88;;
64795;SDS011;51229;51.980;6.722;2023-04-03T06:12:43;3.92;;;1.75;;
64795;SDS011;51229;51.980;6.722;2023-04-03T06:15:09;5.72;;;1.77;;
64795;SDS011;51229;51.980;6.722;2023-04-03T06:17:36;4.95;;;1.70;;
64795;SDS011;51229;51.980;6.722;2023-04-03T06:20:03;6.15;;;1.77;;
64795;SDS011;51229;51.980;6.722;2023-04-03T06:22:29;5.18;;;2.20;;
64795;SDS011;51229;51.980;6.722;2023-04-03T06:24:56;6.03;;;1.90;;
64795;SDS011;51229;51.980;6.722;2023-04-03T06:27:22;5.35;;;1.77;;
64795;SDS011;51229;51.980;6.722;2023-04-03T06:29:48;4.95;;;1.80;;
64795;SDS011;51229;51.980;6.722;2023-04-03T06:32:14;4.57;;;1.60;;
64795;SDS011;51229;51.980;6.722;2023-04-03T06:34:40;6.15;;;1.52;;
64795;SDS011;51229;51.980;6.722;2023-04-03T06:37:10;4.60;;;1.75;;
64795;SDS011;51229;51.980;6.722;2023-04-03T06:39:42;5.38;;;1.90;;
64795;SDS011;51229;51.980;6.722;2023-04-03T06:42:08;9.82;;;2.00;;
64795;SDS011;51229;51.980;6.722;2023-04-03T06:44:42;10.27;;;2.20;;
64795;SDS011;51229;51.980;6.722;2023-04-03T06:47:09;5.30;;;1.80;;
64795;SDS011;51229;51.980;6.722;2023-04-03T06:49:38;4.22;;;1.48;;
64795;SDS011;51229;51.980;6.722;2023-04-03T06:52:04;4.95;;;1.38;;
64795;SDS011;51229;51.980;6.722;2023-04-03T06:54:31;5.97;;;1.30;;
64795;SDS011;51229;51.980;6.722;2023-04-03T06:56:57;3.35;;;1.30;;
64795;SDS011;51229;51.980;6.722;2023-04-03T06:59:23;4.95;;;1.65;;
64795;SDS011;51229;51.980;6.722;2023-04-03T07:01:49;6.28;;;1.48;;
64795;SDS011;51229;51.980;6.722;2023-04-03T07:04:14;3.75;;;1.17;;
64795;SDS011;51229;51.980;6.722;2023-04-03T07:06:41;3.83;;;1.50;;
64795;SDS011;51229;51.980;6.722;2023-04-03T07:09:08;8.05;;;1.58;;
64795;SDS011;51229;51.980;6.722;2023-04-03T07:11:34;9.65;;;2.20;;
64795;SDS011;51229;51.980;6.722;2023-04-03T07:14:01;4.95;;;1.40;;
64795;SDS011;51229;51.980;6.722;2023-04-03T07:16:27;6.10;;;1.33;;
64795;SDS011;51229;51.980;6.722;2023-04-03T07:18:52;5.15;;;1.23;;
64795;SDS011;51229;51.980;6.722;2023-04-03T07:21:18;2.75;;;1.08;;
64795;SDS011;51229;51.980;6.722;2023-04-03T07:23:44;5.45;;;1.65;;
64795;SDS011;51229;51.980;6.722;2023-04-03T07:26:09;3.38;;;1.23;;
64795;SDS011;51229;51.980;6.722;2023-04-03T07:28:35;4.88;;;1.42;;
64795;SDS011;51229;51.980;6.722;2023-04-03T07:31:07;10.10;;;1.70;;
64795;SDS011;51229;51.980;6.722;2023-04-03T07:33:37;4.00;;;1.40;;
64795;SDS011;51229;51.980;6.722;2023-04-03T07:36:03;3.40;;;1.30;;
64795;SDS011;51229;51.980;6.722;2023-04-03T07:38:31;3.03;;;1.08;;
64795;SDS011;51229;51.980;6.722;2023-04-03T07:40:57;4.82;;;1.40;;
64795;SDS011;51229;51.980;6.722;2023-04-03T07:43:23;2.85;;;1.10;;
64795;SDS011;51229;51.980;6.722;2023-04-03T07:45:50;5.75;;;1.20;;
64795;SDS011;51229;51.980;6.722;2023-04-03T07:48:20;3.70;;;1.38;;
64795;SDS011;51229;51.980;6.722;2023-04-03T07:50:50;5.85;;;1.40;;
64795;SDS011;51229;51.980;6.722;2023-04-03T07:53:16;4.95;;;1.25;;
64795;SDS011;51229;51.980;6.722;2023-04-03T07:55:42;3.97;;;1.38;;
64795;SDS011;51229;51.980;6.722;2023-04-03T07:58:12;5.07;;;1.63;;
64795;SDS011;51229;51.980;6.722;2023-04-03T08:00:42;3.40;;;1.10;;
64795;SDS011;51229;51.980;6.722;2023-04-03T08:03:09;4.53;;;1.23;;
64795;SDS011;51229;51.980;6.722;2023-04-03T08:05:37;2.20;;;1.13;;
64795;SDS011;51229;51.980;6.722;2023-04-03T08:08:04;3.90;;;1.27;;
64795;SDS011;51229;51.980;6.722;2023-04-03T08:10:30;1.92;;;1.00;;
64795;SDS011;51229;51.980;6.722;2023-04-03T08:12:56;5.28;;;1.10;;
64795;SDS011;51229;51.980;6.722;2023-04-03T08:15:22;4.18;;;1.20;;
64795;SDS011;51229;51.980;6.722;2023-04-03T08:17:48;3.72;;;1.13;;
64795;SDS011;51229;51.980;6.722;2023-04-03T08:20:14;2.60;;;1.02;;
64795;SDS011;51229;51.980;6.722;2023-04-03T08:22:40;3.25;;;1.23;;
64795;SDS011;51229;51.980;6.722;2023-04-03T08:25:05;1.52;;;0.88;;
64795;SDS011;51229;51.980;6.722;2023-04-03T08:27:31;5.25;;;1.25;;
64795;SDS011;51229;51.980;6.722;2023-04-03T08:29:57;4.18;;;1.20;;
64795;SDS011;51229;51.980;6.722;2023-04-03T08:32:23;4.10;;;1.23;;
64795;SDS011;51229;51.980;6.722;2023-04-03T08:34:49;3.03;;;1.00;;
64795;SDS011;51229;51.980;6.722;2023-04-03T08:37:15;5.25;;;1.00;;
64795;SDS011;51229;51.980;6.722;2023-04-03T08:39:41;4.35;;;1.10;;
64795;SDS011;51229;51.980;6.722;2023-04-03T08:42:16;2.50;;;0.85;;
64795;SDS011;51229;51.980;6.722;2023-04-03T08:47:46;2.05;;;0.85;;
64795;SDS011;51229;51.980;6.722;2023-04-03T08:53:15;3.00;;;1.05;;
64795;SDS011;51229;51.980;6.722;2023-04-03T08:55:52;3.10;;;1.00;;
64795;SDS011;51229;51.980;6.722;2023-04-03T08:58:20;2.30;;;0.85;;
64795;SDS011;51229;51.980;6.722;2023-04-03T09:03:21;2.83;;;1.10;;
64795;SDS011;51229;51.980;6.722;2023-04-03T09:10:59;2.50;;;0.90;;
64795;SDS011;51229;51.980;6.722;2023-04-03T09:16:04;2.00;;;0.70;;
64795;SDS011;51229;51.980;6.722;2023-04-03T09:18:42;2.13;;;0.90;;
64795;SDS011;51229;51.980;6.722;2023-04-03T09:21:24;2.22;;;1.02;;
64795;SDS011;51229;51.980;6.722;2023-04-03T09:24:13;2.63;;;0.90;;
64795;SDS011;51229;51.980;6.722;2023-04-03T09:27:01;2.22;;;0.60;;
64795;SDS011;51229;51.980;6.722;2023-04-03T09:29:38;1.83;;;0.70;;
64795;SDS011;51229;51.980;6.722;2023-04-03T09:32:18;1.38;;;0.80;;
64795;SDS011;51229;51.980;6.722;2023-04-03T09:35:15;5.15;;;1.00;;
64795;SDS011;51229;51.980;6.722;2023-04-03T09:37:43;1.30;;;0.63;;
64795;SDS011;51229;51.980;6.722;2023-04-03T09:42:55;1.85;;;0.70;;
64795;SDS011;51229;51.980;6.722;2023-04-03T09:45:28;3.00;;;0.80;;
64795;SDS011;51229;51.980;6.722;2023-04-03T09:48:05;2.67;;;1.00;;
64795;SDS011;51229;51.980;6.722;2023-04-03T09:50:38;2.85;;;0.95;;
64795;SDS011;51229;51.980;6.722;2023-04-03T09:53:38;1.88;;;0.68;;
64795;SDS011;51229;51.980;6.722;2023-04-03T09:58:40;1.73;;;0.80;;
64795;SDS011;51229;51.980;6.722;2023-04-03T10:04:01;2.90;;;0.80;;
64795;SDS011;51229;51.980;6.722;2023-04-03T10:06:39;2.95;;;1.02;;
64795;SDS011;51229;51.980;6.722;2023-04-03T10:09:30;2.38;;;0.90;;
64795;SDS011;51229;51.980;6.722;2023-04-03T10:12:04;1.90;;;0.80;;
64795;SDS011;51229;51.980;6.722;2023-04-03T10:14:35;2.58;;;0.90;;
64795;SDS011;51229;51.980;6.722;2023-04-03T10:17:05;2.17;;;0.80;;
64795;SDS011;51229;51.980;6.722;2023-04-03T10:28:01;4.95;;;1.10;;
64795;SDS011;51229;51.980;6.722;2023-04-03T10:36:02;2.13;;;0.88;;
64795;SDS011;51229;51.980;6.722;2023-04-03T10:38:41;2.63;;;0.80;;
64795;SDS011;51229;51.980;6.722;2023-04-03T10:46:49;4.13;;;1.02;;
64795;SDS011;51229;51.980;6.722;2023-04-03T10:55:35;3.08;;;0.95;;
64795;SDS011;51229;51.980;6.722;2023-04-03T10:58:18;3.13;;;0.93;;
64795;SDS011;51229;51.980;6.722;2023-04-03T11:00:59;3.40;;;1.00;;
64795;SDS011;51229;51.980;6.722;2023-04-03T11:03:33;1.52;;;0.75;;
64795;SDS011;51229;51.980;6.722;2023-04-03T11:06:10;2.75;;;1.10;;
64795;SDS011;51229;51.980;6.722;2023-04-03T11:11:35;3.97;;;1.20;;
64795;SDS011;51229;51.980;6.722;2023-04-03T11:17:50;2.97;;;0.90;;
64795;SDS011;51229;51.980;6.722;2023-04-03T11:22:43;2.08;;;0.90;;
64795;SDS011;51229;51.980;6.722;2023-04-03T11:25:20;2.75;;;1.17;;
64795;SDS011;51229;51.980;6.722;2023-04-03T11:27:50;2.67;;;1.10;;
64795;SDS011;51229;51.980;6.722;2023-04-03T11:35:48;2.55;;;1.00;;
64795;SDS011;51229;51.980;6.722;2023-04-03T11:38:28;3.03;;;1.20;;
64795;SDS011;51229;51.980;6.722;2023-04-03T11:40:59;3.15;;;1.30;;
64795;SDS011;51229;51.980;6.722;2023-04-03T11:43:27;3.00;;;1.20;;
64795;SDS011;51229;51.980;6.722;2023-04-03T11:50:54;4.40;;;1.20;;
64795;SDS011;51229;51.980;6.722;2023-04-03T11:53:31;3.03;;;1.20;;
64795;SDS011;51229;51.980;6.722;2023-04-03T11:56:00;6.63;;;1.40;;
64795;SDS011;51229;51.980;6.722;2023-04-03T11:58:33;2.90;;;1.38;;
64795;SDS011;51229;51.980;6.722;2023-04-03T12:16:07;3.53;;;1.42;;
64795;SDS011;51229;51.980;6.722;2023-04-03T12:21:14;2.55;;;1.02;;
64795;SDS011;51229;51.980;6.722;2023-04-03T12:26:26;2.03;;;0.98;;
64795;SDS011;51229;51.980;6.722;2023-04-03T12:28:55;2.72;;;1.23;;
64795;SDS011;51229;51.980;6.722;2023-04-03T12:31:22;2.78;;;1.20;;
64795;SDS011;51229;51.980;6.722;2023-04-03T12:37:07;3.28;;;1.20;;
64795;SDS011;51229;51.980;6.722;2023-04-03T12:45:47;2.72;;;1.27;;
64795;SDS011;51229;51.980;6.722;2023-04-03T12:48:52;4.57;;;1.50;;
64795;SDS011;51229;51.980;6.722;2023-04-03T12:57:11;2.67;;;1.00;;
64795;SDS011;51229;51.980;6.722;2023-04-03T12:59:40;3.35;;;1.10;;
64795;SDS011;51229;51.980;6.722;2023-04-03T13:02:22;4.10;;;1.75;;
64795;SDS011;51229;51.980;6.722;2023-04-03T13:04:52;3.37;;;1.40;;
64795;SDS011;51229;51.980;6.722;2023-04-03T13:07:20;2.33;;;1.15;;
64795;SDS011;51229;51.980;6.722;2023-04-03T13:10:14;3.50;;;1.02;;
64795;SDS011;51229;51.980;6.722;2023-04-03T13:15:21;3.70;;;1.30;;
64795;SDS011;51229;51.980;6.722;2023-04-03T13:17:50;5.10;;;1.40;;
64795;SDS011;51229;51.980;6.722;2023-04-03T13:20:26;3.80;;;1.13;;
64795;SDS011;51229;51.980;6.722;2023-04-03T13:25:23;2.47;;;0.93;;
64795;SDS011;51229;51.980;6.722;2023-04-03T13:27:50;4.05;;;1.50;;
64795;SDS011;51229;51.980;6.722;2023-04-03T13:30:21;3.53;;;1.10;;
64795;SDS011;51229;51.980;6.722;2023-04-03T13:32:56;2.90;;;1.40;;
64795;SDS011;51229;51.980;6.722;2023-04-03T13:35:45;5.78;;;1.55;;
64795;SDS011;51229;51.980;6.722;2023-04-03T13:43:24;2.92;;;1.27;;
64795;SDS011;51229;51.980;6.722;2023-04-03T13:46:02;2.95;;;1.15;;
64795;SDS011;51229;51.980;6.722;2023-04-03T13:48:42;4.88;;;1.30;;
64795;SDS011;51229;51.980;6.722;2023-04-03T13:53:47;2.78;;;1.23;;
64795;SDS011;51229;51.980;6.722;2023-04-03T13:56:31;4.05;;;1.30;;
64795;SDS011;51229;51.980;6.722;2023-04-03T14:04:18;3.75;;;1.30;;
64795;SDS011;51229;51.980;6.722;2023-04-03T14:06:46;3.20;;;1.30;;
64795;SDS011;51229;51.980;6.722;2023-04-03T14:09:13;4.47;;;1.90;;
64795;SDS011;51229;51.980;6.722;2023-04-03T14:11:40;3.13;;;1.10;;
64795;SDS011;51229;51.980;6.722;2023-04-03T14:14:11;4.05;;;1.30;;
64795;SDS011;51229;51.980;6.722;2023-04-03T14:16:40;4.78;;;1.50;;
64795;SDS011;51229;51.980;6.722;2023-04-03T14:19:11;5.10;;;1.70;;
64795;SDS011;51229;51.980;6.722;2023-04-03T14:21:49;3.72;;;1.73;;
64795;SDS011;51229;51.980;6.722;2023-04-03T14:24:15;3.28;;;1.33;;
64795;SDS011;51229;51.980;6.722;2023-04-03T14:26:42;2.90;;;1.40;;
64795;SDS011;51229;51.980;6.722;2023-04-03T14:29:09;4.95;;;1.73;;
64795;SDS011;51229;51.980;6.722;2023-04-03T14:31:36;4.00;;;1.52;;
64795;SDS011;51229;51.980;6.722;2023-04-03T14:34:02;3.65;;;1.35;;
64795;SDS011;51229;51.980;6.722;2023-04-03T14:36:28;2.70;;;1.30;;
64795;SDS011;51229;51.980;6.722;2023-04-03T14:38:55;3.70;;;1.30;;
64795;SDS011;51229;51.980;6.722;2023-04-03T14:41:23;2.80;;;1.45;;
64795;SDS011;51229;51.980;6.722;2023-04-03T14:43:50;5.82;;;1.73;;
64795;SDS011;51229;51.980;6.722;2023-04-03T14:46:21;4.30;;;1.50;;
64795;SDS011;51229;51.980;6.722;2023-04-03T14:48:54;3.15;;;1.30;;
64795;SDS011;51229;51.980;6.722;2023-04-03T14:51:21;3.75;;;1.35;;
64795;SDS011;51229;51.980;6.722;2023-04-03T14:53:47;3.67;;;1.45;;
64795;SDS011;51229;51.980;6.722;2023-04-03T14:56:16;3.60;;;1.60;;
64795;SDS011;51229;51.980;6.722;2023-04-03T14:58:43;5.32;;;1.92;;
64795;SDS011;51229;51.980;6.722;2023-04-03T15:01:12;4.35;;;1.75;;
64795;SDS011;51229;51.980;6.722;2023-04-03T15:03:39;3.47;;;1.30;;
64795;SDS011;51229;51.980;6.722;2023-04-03T15:06:05;6.00;;;1.48;;
64795;SDS011;51229;51.980;6.722;2023-04-03T15:08:31;3.53;;;1.48;;
64795;SDS011;51229;51.980;6.722;2023-04-03T15:10:57;3.53;;;1.50;;
64795;SDS011;51229;51.980;6.722;2023-04-03T15:13:24;4.55;;;1.60;;
64795;SDS011;51229;51.980;6.722;2023-04-03T15:15:50;4.72;;;1.58;;
64795;SDS011;51229;51.980;6.722;2023-04-03T15:18:18;6.30;;;1.45;;
64795;SDS011;51229;51.980;6.722;2023-04-03T15:20:48;4.35;;;1.60;;
64795;SDS011;51229;51.980;6.722;2023-04-03T15:23:15;2.95;;;1.27;;
64795;SDS011;51229;51.980;6.722;2023-04-03T15:25:44;3.85;;;1.65;;
64795;SDS011;51229;51.980;6.722;2023-04-03T15:28:31;4.57;;;1.48;;
64795;SDS011;51229;51.980;6.722;2023-04-03T15:31:00;3.53;;;1.45;;
64795;SDS011;51229;51.980;6.722;2023-04-03T15:33:26;4.25;;;1.40;;
64795;SDS011;51229;51.980;6.722;2023-04-03T15:35:52;3.22;;;1.33;;
64795;SDS011;51229;51.980;6.722;2023-04-03T15:38:18;3.40;;;1.50;;
64795;SDS011;51229;51.980;6.722;2023-04-03T15:40:44;3.20;;;1.40;;
64795;SDS011;51229;51.980;6.722;2023-04-03T15:43:12;3.92;;;1.40;;
64795;SDS011;51229;51.980;6.722;2023-04-03T15:45:38;4.43;;;1.67;;
64795;SDS011;51229;51.980;6.722;2023-04-03T15:48:05;3.45;;;1.48;;
64795;SDS011;51229;51.980;6.722;2023-04-03T15:50:32;4.68;;;2.00;;
64795;SDS011;51229;51.980;6.722;2023-04-03T15:52:58;2.50;;;1.60;;
64795;SDS011;51229;51.980;6.722;2023-04-03T15:55:27;3.90;;;1.60;;
64795;SDS011;51229;51.980;6.722;2023-04-03T15:57:55;2.38;;;1.20;;
64795;SDS011;51229;51.980;6.722;2023-04-03T16:00:22;5.20;;;1.90;;
64795;SDS011;51229;51.980;6.722;2023-04-03T16:02:49;3.63;;;1.65;;
64795;SDS011;51229;51.980;6.722;2023-04-03T16:05:18;4.10;;;1.65;;
64795;SDS011;51229;51.980;6.722;2023-04-03T16:07:44;5.80;;;1.60;;
64795;SDS011;51229;51.980;6.722;2023-04-03T16:10:11;4.50;;;1.58;;
64795;SDS011;51229;51.980;6.722;2023-04-03T16:12:38;6.93;;;2.67;;
64795;SDS011;51229;51.980;6.722;2023-04-03T16:15:05;2.70;;;1.30;;
64795;SDS011;51229;51.980;6.722;2023-04-03T16:17:31;3.60;;;1.50;;
64795;SDS011;51229;51.980;6.722;2023-04-03T16:19:59;5.38;;;1.50;;
64795;SDS011;51229;51.980;6.722;2023-04-03T16:22:26;4.65;;;1.40;;
64795;SDS011;51229;51.980;6.722;2023-04-03T16:24:53;3.15;;;1.30;;
64795;SDS011;51229;51.980;6.722;2023-04-03T16:27:19;3.83;;;1.38;;
64795;SDS011;51229;51.980;6.722;2023-04-03T16:29:46;4.95;;;1.48;;
64795;SDS011;51229;51.980;6.722;2023-04-03T16:32:12;3.15;;;1.48;;
64795;SDS011;51229;51.980;6.722;2023-04-03T16:34:38;3.92;;;1.60;;
64795;SDS011;51229;51.980;6.722;2023-04-03T16:37:05;2.78;;;1.27;;
64795;SDS011;51229;51.980;6.722;2023-04-03T16:39:31;2.80;;;1.10;;
64795;SDS011;51229;51.980;6.722;2023-04-03T16:41:57;4.40;;;1.42;;
64795;SDS011;51229;51.980;6.722;2023-04-03T16:44:22;5.63;;;1.80;;
64795;SDS011;51229;51.980;6.722;2023-04-03T16:46:48;3.60;;;1.17;;
64795;SDS011;51229;51.980;6.722;2023-04-03T16:49:13;4.70;;;1.30;;
64795;SDS011;51229;51.980;6.722;2023-04-03T16:51:39;4.68;;;1.35;;
64795;SDS011;51229;51.980;6.722;2023-04-03T16:54:05;5.00;;;1.77;;
64795;SDS011;51229;51.980;6.722;2023-04-03T16:56:31;3.97;;;1.88;;
64795;SDS011;51229;51.980;6.722;2023-04-03T16:58:57;5.05;;;1.50;;
64795;SDS011;51229;51.980;6.722;2023-04-03T17:01:22;3.72;;;2.03;;
64795;SDS011;51229;51.980;6.722;2023-04-03T17:03:48;5.10;;;1.83;;
64795;SDS011;51229;51.980;6.722;2023-04-03T17:06:18;4.50;;;1.27;;
64795;SDS011;51229;51.980;6.722;2023-04-03T17:08:46;6.05;;;2.67;;